Main page
METAR-TAF:

METAR-TAF

Airports :

Samedan Airport

St. Moritz, Switzerland

latitude: 46-32-03N, longitude: 9-53-03E, elevation: 1707 m

Current weather observation

The report was made 25 minutes ago, at 08:20 UTC
Wind 4 kt from the Northeast, varying between North/Northeast and East
Temperature 0°C
Humidity 80%
Pressure 1018 hPa
Visibility 10 km or more
Few clouds at a height of 2000 ft
Broken clouds at a height of 5000 ft

METAR: LSZS 160820Z 05004KT 030V100 9999 FEW020 BKN050 M00/M03 Q1018 RMK D TL170

Time: 09:45 (08:45 UTC)

Forecast

The report was made 20 minutes ago, at 08:25 UTC
Forecast valid from 16 at 09 UTC to 16 at 18 UTC
Wind 2 kt from variable directions
Visibility 10 km or more
Few clouds at a height of 2000 ft
Broken clouds at a height of 5000 ft
Probability 40% :
Temporary
from 16 at 10 UTC to 16 at 15 UTC
Wind 12 kt from the South/Southwest

TAF: LSZS 160825Z 1609/1618 VRB02KT 9999 FEW020 BKN050 TX04/1613Z PROB40 TEMPO 1610/1615 21012KT

Weather observations and forecasts of more than 4000 airports (METAR and TAF reports).

The available stations are represented by yellow and red dots on the map.

Hover mouse over dot to see the name of the station.

Then click to see weather observations and forecasts.

To change the map : click on the green buttons with a black cross to zoom in, on the green button with a dash to zoom out, or on the green arrows for adjacent maps.


METAR-TAF: